Flight Track Log - Related Links

Times and Time Zones

All times are in EDT time to prevent confusion due to time zone crossing. See the UAL149 flight status page for this flight to view local times or setup timezone preferences in your user account.


Time Position Orientation Groundspeed Altitude Reporting Facility
EDT Latitude Longitude Course Direction KTS MPH feet Rate Location/Type
Fri 04:24:12 PM 18.4330 -65.9770 90° East 180 207 900  Level FlightAware ADS-B
Fri 04:24:42 PM 18.4440 -65.9540 63° Northeast 203 234 1,700 2,000 Climbing FlightAware ADS-B
Fri 04:25:27 PM 18.4870 -65.9630 349° North 230 265 3,400 1,971 Climbing FlightAware ADS-B
Fri 04:25:52 PM 18.5100 -65.9820 322° Northwest 262 302 4,000 2,291 Climbing FlightAware ADS-B
Fri 04:26:22 PM 18.5350 -66.0120 311° West 269 310 5,500 2,945 Climbing FlightAware ADS-B
Fri 04:26:47 PM 18.5550 -66.0360 311° West 274 315 6,700 2,836 Climbing FlightAware ADS-B
Fri 04:27:17 PM 18.5820 -66.0670 313° West 282 325 8,100 2,836 Climbing FlightAware ADS-B
Fri 04:27:42 PM 18.6050 -66.0940 312° West 284 327 9,300 2,229 Climbing FlightAware ADS-B
Fri 04:28:27 PM 18.6430 -66.1400 311° West 308 354 10,700 1,482 Climbing FlightAware ADS-B
Fri 04:29:07 PM 18.6850 -66.1890 312° West 350 403 11,400 1,694 Climbing FlightAware ADS-B
Fri 04:29:52 PM 18.7350 -66.2490 311° West 362 417 13,100 2,200 Climbing FlightAware ADS-B
Fri 04:30:37 PM 18.7860 -66.3090 312° West 374 430 14,700 2,188 Climbing FlightAware ADS-B
Fri 04:31:17 PM 18.8320 -66.3640 311° West 378 435 16,200 2,100 Climbing FlightAware ADS-B
Fri 04:31:57 PM 18.8780 -66.4190 311° West 385 443 17,500 1,976 Climbing FlightAware ADS-B
Fri 04:32:42 PM 18.9340 -66.4850 312° West 394 453 19,000 2,118 Climbing FlightAware ADS-B
Fri 04:33:22 PM 18.9880 -66.5390 317° Northwest 395 455 20,500 1,906 Climbing FlightAware ADS-B
Fri 04:34:07 PM 19.0450 -66.5970 316° Northwest 404 465 21,700 1,694 Climbing FlightAware ADS-B
Fri 04:34:47 PM 19.0990 -66.6570 314° West 409 471 22,900 1,624 Climbing FlightAware ADS-B
Fri 04:35:32 PM 19.1540 -66.7280 309° West 418 481 24,000 1,482 Climbing FlightAware ADS-B
Fri 04:36:12 PM 19.2030 -66.7920 309° West 424 488 25,000 1,425 Climbing FlightAware ADS-B
Fri 04:36:52 PM 19.2540 -66.8560 310° West 429 494 25,900 1,271 Climbing FlightAware ADS-B
Fri 04:37:37 PM 19.3090 -66.9270 309° West 436 502 26,800 1,260 Climbing FlightAware ADS-B
Fri 04:38:32 PM 19.3810 -67.0200 309° West 441 507 28,000 1,579 Climbing FlightAware ADS-B
Fri 04:39:12 PM 19.4330 -67.0870 309° West 433 498 29,300 1,906 Climbing FlightAware ADS-B
Fri 04:39:57 PM 19.4880 -67.1590 309° West 422 486 30,700 1,482 Climbing FlightAware ADS-B
Fri 04:40:37 PM 19.5390 -67.2240 310° West 422 486 31,400 988 Climbing FlightAware ADS-B
Fri 04:41:22 PM 19.5950 -67.2970 309° West 425 489 32,100 1,059 Climbing FlightAware ADS-B
Fri 04:42:02 PM 19.6450 -67.3620 309° West 424 488 32,900 1,200 Climbing FlightAware ADS-B
Fri 04:42:42 PM 19.6950 -67.4260 310° West 419 482 33,700 776 Climbing FlightAware ADS-B
Fri 04:43:27 PM 19.7490 -67.4960 309° West 419 482 34,000 212 Climbing FlightAware ADS-B
Fri 04:44:07 PM 19.7970 -67.5590 309° West 417 480 34,000  Level FlightAware ADS-B
Fri 04:45:02 PM 19.8650 -67.6490 309° West 416 479 34,000  Level FlightAware ADS-B
Fri 04:45:47 PM 19.9150 -67.7140 309° West 415 478 34,000  Level FlightAware ADS-B
Fri 04:46:27 PM 19.9670 -67.7820 309° West 414 476 34,000  Level FlightAware ADS-B
Fri 04:47:02 PM 20.0050 -67.8310 310° West 414 476 34,000  Level FlightAware ADS-B
Fri 04:47:47 PM 20.0550 -67.8970 309° West 414 476 34,000  Level FlightAware ADS-B
Fri 04:48:27 PM 20.0960 -67.9510 309° West 414 476 34,000  Level FlightAware ADS-B
Fri 04:49:17 PM 20.1470 -68.0180 309° West 414 476 34,000  Level FlightAware ADS-B
Fri 04:49:57 PM 20.1880 -68.0720 309° West 414 476 34,000  Level FlightAware ADS-B
Fri 04:50:37 PM 20.2290 -68.1260 309° West 414 476 34,000  Level FlightAware ADS-B
Fri 04:51:17 PM 20.2700 -68.1800 309° West 414 476 34,000  Level FlightAware ADS-B
Fri 04:51:57 PM 20.3110 -68.2340 309° West 414 476 34,000  Level FlightAware ADS-B
Fri 04:52:47 PM 20.3620 -68.3010 309° West 414 476 34,000  Level FlightAware ADS-B
Fri 04:53:27 PM 20.4030 -68.3550 309° West 414 476 34,000  Level FlightAware ADS-B
Fri 04:54:07 PM 20.4440 -68.4090 309° West 414 476 34,000  Level FlightAware ADS-B
Fri 04:54:47 PM 20.4850 -68.4630 309° West 414 476 34,000  Level FlightAware ADS-B
Fri 04:55:27 PM 20.5260 -68.5180 309° West 414 476 34,000  Level FlightAware ADS-B
Fri 04:56:17 PM 20.5770 -68.5850 309° West 414 476 34,000  Level FlightAware ADS-B
Fri 04:56:57 PM 20.6180 -68.6390 309° West 414 476 34,000  Level FlightAware ADS-B
Fri 04:57:28 PM 20.6436 -68.9031 309° West 410 472 34,000  Level Miami Center
Fri 04:58:28 PM 20.6992 -69.0106 299° West 410 472 34,000  Level Miami Center
Fri 04:59:28 PM 20.7567 -69.1181 300° West 415 478 34,000  Level Miami Center
Fri 05:00:28 PM 20.8119 -69.2256 299° West 415 478 34,000  Level Miami Center
Fri 05:01:28 PM 20.8672 -69.3333 299° West 415 478 34,000  Level Miami Center
Fri 05:02:28 PM 20.9203 -69.4411 298° West 415 478 34,000  Level Miami Center
Fri 05:03:28 PM 20.9797 -69.5467 301° West 415 478 34,000  Level Miami Center
Fri 05:04:28 PM 21.0367 -69.6544 300° West 415 478 34,000 500 Level Miami Center
Fri 05:05:28 PM 21.0917 -69.7625 299° West 415 478 35,000 1,000 Climbing Miami Center
Fri 05:06:28 PM 21.1447 -69.8708 298° West 415 478 36,000 500 Climbing Miami Center
Fri 05:07:28 PM 21.1994 -69.9769 299° West 415 478 36,000  Level Miami Center
Fri 05:08:28 PM 21.2564 -70.0853 299° West 415 478 36,000  Level Miami Center
Fri 05:09:28 PM 21.3108 -70.1892 299° West 415 478 36,000  Level Miami Center
Fri 05:10:28 PM 21.3656 -70.2956 299° West 410 472 36,000  Level Miami Center
Fri 05:11:28 PM 21.4222 -70.4042 299° West 410 472 36,000  Level Miami Center
Fri 05:12:28 PM 21.4747 -70.5108 298° West 410 472 36,000  Level Miami Center
Fri 05:13:28 PM 21.5292 -70.6175 299° West 405 466 36,000  Level Miami Center
Fri 05:14:28 PM 21.5856 -70.7239 300° West 405 466 36,000  Level Miami Center
Fri 05:15:28 PM 21.6419 -70.8308 300° West 405 466 36,000  Level Miami Center
Fri 05:16:28 PM 21.6983 -70.9397 299° West 405 466 36,000  Level Miami Center
Fri 05:17:28 PM 21.7572 -71.0600 298° West 405 466 36,000  Level Miami Center
Fri 05:18:28 PM 21.8092 -71.1694 297° West 410 472 36,000  Level Miami Center
Fri 05:19:28 PM 21.8633 -71.2764 299° West 410 472 36,000  Level Miami Center
Fri 05:20:28 PM 21.9175 -71.3883 298° West 410 472 36,000  Level Miami Center
Fri 05:21:28 PM 21.9733 -71.4956 299° West 410 472 36,000  Level Miami Center
Fri 05:22:28 PM 22.0250 -71.6031 297° West 410 472 36,000  Level Miami Center
Fri 05:23:28 PM 22.0769 -71.7131 297° West 410 472 36,000  Level Miami Center
Fri 05:24:28 PM 22.1306 -71.8183 299° West 410 472 36,000  Level Miami Center
Fri 05:25:28 PM 22.1842 -71.9239 299° West 404 465 36,000  Level Miami Center
Fri 05:26:28 PM 22.2356 -72.0342 297° West 404 465 36,000  Level Miami Center
Fri 05:27:28 PM 22.2892 -72.1419 298° West 404 465 36,000  Level Miami Center
Fri 05:28:28 PM 22.3425 -72.2478 299° West 404 465 36,000  Level Miami Center
Fri 05:29:28 PM 22.3939 -72.3606 296° West 404 465 36,000  Level Miami Center
Fri 05:30:28 PM 22.4511 -72.4664 300° West 404 465 36,000  Level Miami Center
Fri 05:31:28 PM 22.5025 -72.5814 296° West 409 471 36,000  Level Miami Center
Fri 05:32:28 PM 22.5558 -72.6919 298° West 409 471 36,000  Level Miami Center
Fri 05:33:28 PM 22.6131 -72.8025 299° West 414 476 36,000  Level Miami Center
Fri 05:34:28 PM 22.6619 -72.9136 296° West 414 476 36,000  Level Miami Center
Fri 05:35:28 PM 22.7169 -73.0244 298° West 414 476 36,000  Level Miami Center
Fri 05:36:28 PM 22.7697 -73.1333 298° West 419 482 36,000  Level Miami Center
Fri 05:37:28 PM 22.8119 -73.2311 295° West 412 474 36,000  Level Miami Center
Fri 05:38:28 PM 22.8667 -73.3400 299° West 407 468 36,000  Level Miami Center
Fri 05:39:28 PM 22.9153 -73.4514 295° West 407 468 36,000  Level Miami Center
Fri 05:40:28 PM 22.9742 -73.5625 300° West 412 474 36,000  Level Miami Center
Fri 05:41:28 PM 23.0264 -73.6697 298° West 412 474 36,000  Level Miami Center
Fri 05:42:28 PM 23.0769 -73.7811 296° West 407 468 36,000  Level Miami Center
Fri 05:43:28 PM 23.1314 -73.8997 297° West 407 468 36,000  Level Miami Center
Fri 05:44:28 PM 23.1858 -74.0114 298° West 407 468 36,000  Level Miami Center
Fri 05:45:28 PM 23.2381 -74.1208 297° West 407 468 36,000  Level Miami Center
Fri 05:46:28 PM 23.2903 -74.2328 297° West 407 468 36,000  Level Miami Center
Fri 05:47:28 PM 23.3422 -74.3383 298° West 402 463 36,000  Level Miami Center
Fri 05:48:28 PM 23.3942 -74.4503 297° West 407 468 36,000  Level Miami Center
Fri 05:49:28 PM 23.4439 -74.5603 296° West 402 463 36,000  Level Miami Center
Fri 05:50:28 PM 23.4956 -74.6681 298° West 402 463 36,000  Level Miami Center
Fri 05:51:28 PM 23.5453 -74.7783 296° West 402 463 36,000  Level Miami Center
Fri 05:52:28 PM 23.5969 -74.8886 297° West 402 463 36,000  Level Miami Center
Fri 05:53:28 PM 23.6483 -74.9967 297° West 402 463 36,000  Level Miami Center
Fri 05:54:28 PM 23.7000 -75.1047 298° West 402 463 36,000  Level Miami Center
Fri 05:55:28 PM 23.7492 -75.2131 296° West 402 463 36,000  Level Miami Center
Fri 05:56:28 PM 23.7983 -75.3236 296° West 402 463 36,000  Level Miami Center
Fri 05:57:28 PM 23.8517 -75.4297 299° West 402 463 36,000  Level Miami Center
Fri 05:58:28 PM 23.8967 -75.5292 296° West 402 463 36,000  Level Miami Center
Fri 05:59:28 PM 23.9456 -75.6356 297° West 402 463 36,000  Level Miami Center
Fri 06:00:28 PM 23.9925 -75.7444 295° West 402 463 36,000  Level Miami Center
Fri 06:01:28 PM 24.0456 -75.8575 297° West 402 463 36,000  Level Miami Center
Fri 06:02:28 PM 24.0942 -75.9619 297° West 402 463 36,000  Level Miami Center
Fri 06:03:28 PM 24.1428 -76.0731 296° West 402 463 36,000  Level Miami Center
Fri 06:04:28 PM 24.1914 -76.1800 297° West 402 463 36,000  Level Miami Center
Fri 06:05:28 PM 24.2378 -76.2892 295° West 402 463 36,000  Level Miami Center
Fri 06:06:28 PM 24.2864 -76.3961 297° West 402 463 36,000  Level Miami Center
Fri 06:07:28 PM 24.3369 -76.5053 297° West 402 463 36,000  Level Miami Center
Fri 06:08:28 PM 24.3892 -76.6217 296° West 396 456 36,000  Level Miami Center
Fri 06:09:28 PM 24.4333 -76.7286 294° West 396 456 36,000  Level Miami Center
Fri 06:10:28 PM 24.4836 -76.8358 297° West 396 456 36,000  Level Miami Center
Fri 06:11:28 PM 24.5317 -76.9456 296° West 396 456 36,000  Level Miami Center
Fri 06:12:28 PM 24.5817 -77.0553 297° West 396 456 36,000  Level Miami Center
Fri 06:13:28 PM 24.6253 -77.1628 294° West 396 456 36,000  Level Miami Center
Fri 06:14:28 PM 24.6753 -77.2728 297° West 401 461 36,000  Level Miami Center
Fri 06:15:28 PM 24.7125 -77.3622 295° West 401 461 36,000  Level Miami Center
Fri 06:16:28 PM 24.7644 -77.4814 296° West 401 461 36,000  Level Miami Center
Fri 06:21:42 PM 25.0140 -78.0460 296° West 388 447 36,000  Level FlightAware ADS-B
Fri 06:22:22 PM 25.0390 -78.1080 294° West 388 447 36,000  Level FlightAware ADS-B
Fri 06:23:32 PM 25.1040 -78.2510 297° West 389 448 36,000  Level FlightAware ADS-B
Fri 06:24:07 PM 25.1260 -78.3070 293° West 389 448 36,000  Level FlightAware ADS-B
Fri 06:24:57 PM 25.1700 -78.4050 296° West 390 449 36,000  Level FlightAware ADS-B
Fri 06:25:37 PM 25.2030 -78.4820 295° West 391 450 36,000  Level FlightAware ADS-B
Fri 06:26:22 PM 25.2380 -78.5640 295° West 391 450 36,000  Level FlightAware ADS-B
Fri 06:27:02 PM 25.2700 -78.6390 295° West 393 452 36,000  Level FlightAware ADS-B
Fri 06:27:42 PM 25.3010 -78.7110 295° West 392 451 36,000  Level FlightAware ADS-B
Fri 06:28:27 PM 25.3360 -78.7930 295° West 393 452 36,000  Level FlightAware ADS-B
Fri 06:29:07 PM 25.3670 -78.8670 295° West 393 452 36,000  Level FlightAware ADS-B
Fri 06:29:52 PM 25.4020 -78.9490 295° West 393 452 36,000  Level FlightAware ADS-B
Fri 06:30:32 PM 25.4340 -79.0240 295° West 392 451 36,000  Level FlightAware ADS-B
Fri 06:31:17 PM 25.4680 -79.1050 295° West 391 450 36,000  Level FlightAware ADS-B
Fri 06:31:57 PM 25.4980 -79.1760 295° West 393 452 36,000  Level FlightAware ADS-B
Fri 06:32:37 PM 25.5300 -79.2510 295° West 392 451 36,000  Level FlightAware ADS-B
Fri 06:33:22 PM 25.5640 -79.3330 295° West 390 449 36,000  Level FlightAware ADS-B
Fri 06:34:02 PM 25.5950 -79.4060 295° West 389 448 36,000  Level FlightAware ADS-B
Fri 06:34:42 PM 25.6250 -79.4760 295° West 388 447 36,000  Level FlightAware ADS-B
Fri 06:35:27 PM 25.6590 -79.5600 294° West 388 447 36,000  Level FlightAware ADS-B
Fri 06:35:57 PM 25.6820 -79.6130 296° West 388 447 36,000  Level FlightAware ADS-B
Fri 06:36:37 PM 25.7120 -79.6870 294° West 389 448 36,000  Level FlightAware ADS-B
Fri 06:37:17 PM 25.7420 -79.7580 295° West 390 449 36,000  Level FlightAware ADS-B
Fri 06:38:02 PM 25.7770 -79.8410 295° West 391 450 36,000  Level FlightAware ADS-B
Fri 06:38:37 PM 25.8030 -79.9040 295° West 392 451 36,000  Level FlightAware ADS-B
Fri 06:39:22 PM 25.8380 -79.9880 295° West 393 452 36,000  Level FlightAware ADS-B
Fri 06:40:07 PM 25.8720 -80.0700 295° West 393 452 36,000  Level FlightAware ADS-B
Fri 06:40:47 PM 25.9020 -80.1440 294° West 393 452 36,000  Level FlightAware ADS-B
Fri 06:41:32 PM 25.9360 -80.2270 295° West 393 452 36,000  Level FlightAware ADS-B
Fri 06:42:12 PM 25.9670 -80.3010 295° West 393 452 36,000  Level FlightAware ADS-B
Fri 06:42:57 PM 26.0010 -80.3840 295° West 392 451 36,000  Level FlightAware ADS-B
Fri 06:43:37 PM 26.0300 -80.4540 295° West 392 451 36,000  Level FlightAware ADS-B
Fri 06:44:32 PM 26.0670 -80.5500 293° West 391 450 36,000  Level FlightAware ADS-B
Fri 06:45:17 PM 26.0990 -80.6380 292° West 391 450 36,000  Level FlightAware ADS-B
Fri 06:45:57 PM 26.1270 -80.7140 292° West 391 450 36,000  Level FlightAware ADS-B
Fri 06:46:37 PM 26.1540 -80.7870 292° West 390 449 36,000  Level FlightAware ADS-B
Fri 06:47:22 PM 26.1840 -80.8700 292° West 389 448 36,000  Level FlightAware ADS-B
Fri 06:48:02 PM 26.2120 -80.9450 293° West 389 448 36,000  Level FlightAware ADS-B
Fri 06:48:47 PM 26.2420 -81.0280 292° West 389 448 36,000  Level FlightAware ADS-B
Fri 06:49:27 PM 26.2700 -81.1040 292° West 390 449 36,000  Level FlightAware ADS-B
Fri 06:50:07 PM 26.2960 -81.1760 292° West 390 449 36,000  Level FlightAware ADS-B
Fri 06:50:52 PM 26.3270 -81.2620 292° West 389 448 36,000  Level FlightAware ADS-B
Fri 06:51:32 PM 26.3530 -81.3340 292° West 389 448 36,000  Level FlightAware ADS-B
Fri 06:52:12 PM 26.3800 -81.4090 292° West 389 448 36,000  Level FlightAware ADS-B
Fri 06:52:57 PM 26.4110 -81.4940 292° West 389 448 36,000  Level FlightAware ADS-B
Fri 06:53:37 PM 26.4370 -81.5670 292° West 389 448 36,000  Level FlightAware ADS-B
Fri 06:54:22 PM 26.4680 -81.6510 292° West 388 447 36,000  Level FlightAware ADS-B
Fri 06:55:02 PM 26.4940 -81.7250 291° West 388 447 36,000  Level FlightAware ADS-B
Fri 06:55:42 PM 26.5210 -81.8010 292° West 388 447 36,000  Level FlightAware ADS-B
Fri 06:56:27 PM 26.5510 -81.8840 292° West 388 447 36,000  Level FlightAware ADS-B
Fri 06:57:07 PM 26.5770 -81.9580 291° West 389 448 36,000  Level FlightAware ADS-B
Fri 06:57:47 PM 26.6030 -82.0300 292° West 389 448 36,000  Level FlightAware ADS-B
Fri 06:58:32 PM 26.6320 -82.1120 292° West 390 449 36,000  Level FlightAware ADS-B
Fri 06:59:12 PM 26.6610 -82.1940 292° West 389 448 36,000  Level FlightAware ADS-B
Fri 06:59:52 PM 26.6850 -82.2640 291° West 386 444 36,000  Level FlightAware ADS-B
Fri 07:00:37 PM 26.7150 -82.3480 292° West 387 445 36,000  Level FlightAware ADS-B
Fri 07:02:17 PM 26.7810 -82.5330 292° West 382 440 36,000  Level FlightAware ADS-B
Fri 07:02:57 PM 26.8070 -82.6100 291° West 382 440 36,000  Level FlightAware ADS-B
Fri 07:03:42 PM 26.8360 -82.6910 292° West 382 440 36,000  Level FlightAware ADS-B
Fri 07:04:22 PM 26.8630 -82.7680 291° West 382 440 36,000  Level FlightAware ADS-B
Fri 07:05:02 PM 26.8880 -82.8410 291° West 382 440 36,000  Level FlightAware ADS-B
Fri 07:05:42 PM 26.9130 -82.9110 292° West 383 441 36,000  Level FlightAware ADS-B
Fri 07:06:37 PM 26.9490 -83.0170 291° West 387 445 36,000  Level FlightAware ADS-B
Fri 07:07:37 PM 26.9890 -83.1330 291° West 387 445 36,000  Level FlightAware ADS-B
Fri 07:08:22 PM 27.0190 -83.2190 291° West 387 445 36,000  Level FlightAware ADS-B
Fri 07:09:02 PM 27.0410 -83.2840 291° West 387 445 36,000  Level FlightAware ADS-B
Fri 07:09:42 PM 27.0670 -83.3580 292° West 385 443 36,000  Level FlightAware ADS-B
Fri 07:10:22 PM 27.0940 -83.4380 291° West 387 445 36,000  Level FlightAware ADS-B
Fri 07:11:07 PM 27.1250 -83.5280 291° West 389 448 36,000  Level FlightAware ADS-B
Fri 07:11:47 PM 27.1490 -83.6000 291° West 389 448 36,000  Level FlightAware ADS-B
Fri 07:12:47 PM 27.1880 -83.7130 291° West 36,000  Level FlightAware ADS-B
Fri 07:13:27 PM 27.2110 -83.7810 291° West 387 445 36,000  Level FlightAware ADS-B
Fri 07:14:12 PM 27.2420 -83.8730 291° West 387 445 36,000  Level FlightAware ADS-B
Fri 07:14:42 PM 27.2630 -83.9340 291° West 391 450 36,000  Level FlightAware ADS-B
Fri 07:15:27 PM 27.2910 -84.0180 291° West 391 450 36,000  Level FlightAware ADS-B
Fri 07:16:17 PM 27.3220 -84.1080 291° West 388 447 36,000  Level FlightAware ADS-B
Fri 07:16:57 PM 27.3470 -84.1830 291° West 390 449 36,000  Level FlightAware ADS-B
Fri 07:17:42 PM 27.3770 -84.2720 291° West 389 448 36,000  Level FlightAware ADS-B
Fri 07:18:22 PM 27.4020 -84.3460 291° West 389 448 36,000  Level FlightAware ADS-B
Fri 07:19:02 PM 27.4280 -84.4260 290° West 390 449 36,000  Level FlightAware ADS-B
Fri 07:19:47 PM 27.4550 -84.5070 291° West 392 451 36,000  Level FlightAware ADS-B
Fri 07:20:27 PM 27.4820 -84.5890 290° West 393 452 36,000  Level FlightAware ADS-B
Fri 07:21:07 PM 27.5090 -84.6680 291° West 396 456 36,000  Level FlightAware ADS-B
Fri 07:21:52 PM 27.5360 -84.7510 290° West 400 460 36,000  Level FlightAware ADS-B
Fri 07:22:27 PM 27.5600 -84.8220 291° West 402 463 36,000  Level FlightAware ADS-B
Fri 07:23:12 PM 27.5870 -84.9060 290° West 403 464 36,000  Level FlightAware ADS-B
Fri 07:23:57 PM 27.6170 -84.9970 290° West 401 461 36,000  Level FlightAware ADS-B
Fri 07:24:42 PM 27.6480 -85.0910 290° West 401 461 36,000  Level FlightAware ADS-B
Fri 07:25:12 PM 27.6670 -85.1510 290° West 401 461 36,000  Level FlightAware ADS-B
Fri 07:26:12 PM 27.7020 -85.2600 290° West 400 460 36,000  Level FlightAware ADS-B
Fri 07:27:02 PM 27.7280 -85.3440 289° West 400 460 36,000  Level FlightAware ADS-B
Fri 07:27:42 PM 27.7480 -85.4110 289° West 400 460 36,000  Level FlightAware ADS-B
Fri 07:28:37 PM 27.7980 -85.5520 292° West 396 456 36,000  Level FlightAware ADS-B
Fri 07:29:22 PM 27.8250 -85.6350 290° West 395 455 36,000  Level FlightAware ADS-B
Fri 07:29:52 PM 27.8450 -85.6980 290° West 395 455 36,000  Level FlightAware ADS-B
Fri 07:30:37 PM 27.8670 -85.7750 288° West 395 455 36,000  Level FlightAware ADS-B
Fri 07:31:27 PM 27.8910 -85.8580 288° West 395 455 36,000  Level FlightAware ADS-B
Fri 07:32:07 PM 27.9100 -85.9250 288° West 395 455 36,000  Level FlightAware ADS-B
Fri 07:32:47 PM 27.9290 -85.9920 288° West 395 455 36,000  Level FlightAware ADS-B
Fri 07:33:27 PM 27.9490 -86.0590 289° West 395 455 36,000  Level FlightAware ADS-B
Fri 07:34:17 PM 27.9730 -86.1420 288° West 395 455 36,000  Level FlightAware ADS-B
Fri 07:34:57 PM 27.9920 -86.2090 288° West 395 455 36,000  Level FlightAware ADS-B
Fri 07:35:37 PM 28.0110 -86.2760 288° West 395 455 36,000  Level FlightAware ADS-B
Fri 07:36:17 PM 28.0300 -86.3430 288° West 395 455 36,000  Level FlightAware ADS-B
Fri 07:36:57 PM 28.0490 -86.4100 288° West 395 455 36,000  Level FlightAware ADS-B
Fri 07:37:47 PM 28.0730 -86.4940 288° West 395 455 36,000  Level FlightAware ADS-B
Fri 07:38:27 PM 28.0930 -86.5610 289° West 395 455 36,000  Level FlightAware ADS-B
Fri 07:39:07 PM 28.1120 -86.6280 288° West 395 455 36,000  Level FlightAware ADS-B
Fri 07:39:47 PM 28.1310 -86.6950 288° West 395 455 36,000  Level FlightAware ADS-B
Fri 07:40:28 PM 28.2367 -86.9350 288° West 397 457 36,000  Level Jacksonville Center
Fri 07:41:28 PM 28.2725 -87.0519 289° West 391 450 36,000  Level Jacksonville Center
Fri 07:42:28 PM 28.3106 -87.1689 290° West 396 456 36,000  Level Jacksonville Center
Fri 07:43:28 PM 28.3442 -87.2836 288° West 396 456 36,000  Level Jacksonville Center
Fri 07:44:28 PM 28.3836 -87.4081 290° West 401 461 36,000  Level Jacksonville Center
Fri 07:46:56 PM 28.4750 -87.7081 289° West 403 464 36,000  Level Houston Center
Fri 07:47:58 PM 28.5103 -87.8286 288° West 403 464 36,000  Level Houston Center
Fri 07:49:00 PM 28.5472 -87.9492 289° West 405 466 36,000  Level Houston Center
Fri 07:54:57 PM 28.7180 -88.6900 289° West 401 461 36,000  Level FlightAware ADS-B
Fri 07:55:42 PM 28.7350 -88.7780 282° West 402 463 36,000  Level FlightAware ADS-B
Fri 07:56:22 PM 28.7480 -88.8490 282° West 402 463 36,000  Level FlightAware ADS-B
Fri 07:57:02 PM 28.7610 -88.9190 282° West 402 463 36,000  Level FlightAware ADS-B
Fri 07:57:42 PM 28.7740 -88.9900 282° West 402 463 36,000  Level FlightAware ADS-B
Fri 07:58:22 PM 28.7870 -89.0600 282° West 402 463 36,000  Level FlightAware ADS-B
Fri 07:59:12 PM 28.8040 -89.1490 282° West 402 463 36,000  Level FlightAware ADS-B
Fri 07:59:52 PM 28.8170 -89.2190 282° West 402 463 36,000  Level FlightAware ADS-B
Fri 08:00:32 PM 28.8300 -89.2900 282° West 402 463 36,000  Level FlightAware ADS-B
Fri 08:01:12 PM 28.8430 -89.3600 282° West 402 463 36,000  Level FlightAware ADS-B
Fri 08:01:52 PM 28.8560 -89.4310 282° West 402 463 36,000  Level FlightAware ADS-B
Fri 08:02:42 PM 28.8730 -89.5190 282° West 402 463 36,000  Level FlightAware ADS-B
Fri 08:03:22 PM 28.8860 -89.5900 282° West 402 463 36,000  Level FlightAware ADS-B
Fri 08:04:02 PM 28.8990 -89.6610 282° West 402 463 36,000  Level FlightAware ADS-B
Fri 08:04:42 PM 28.9120 -89.7310 282° West 402 463 36,000  Level FlightAware ADS-B
Fri 08:05:29 PM 28.9564 -89.9669 282° West 397 457 36,000  Level Houston Center
Fri 08:06:30 PM 28.9822 -90.1136 281° West 393 452 36,000  Level Houston Center
Fri 08:12:01 PM 29.1047 -90.7927 281° West 394 453 36,000  Level FlightAware ADS-B
Fri 08:12:45 PM 29.1205 -90.8833 281° West 394 453 36,000  Level FlightAware ADS-B
Fri 08:18:11 PM 29.2354 -91.5505 281° West 395 455 36,000  Level FlightAware ADS-B
Fri 08:18:57 PM 29.2513 -91.6447 281° West 395 455 36,000  Level FlightAware ADS-B
Fri 08:19:28 PM 29.2618 -91.7068 281° West 395 455 36,000  Level FlightAware ADS-B
Fri 08:20:00 PM 29.2728 -91.7730 281° West 395 455 36,000  Level FlightAware ADS-B
Fri 08:20:43 PM 29.2877 -91.8622 281° West 395 455 36,000  Level FlightAware ADS-B
Fri 08:21:14 PM 29.2982 -91.9248 281° West 395 455 36,000  Level FlightAware ADS-B
Fri 08:22:25 PM 29.3224 -92.0701 281° West 395 455 36,000  Level FlightAware ADS-B
Fri 08:22:56 PM 29.3329 -92.1341 281° West 395 455 36,000  Level FlightAware ADS-B
Fri 08:24:14 PM 29.3592 -92.2948 281° West 396 456 36,000  Level FlightAware ADS-B
Fri 08:24:46 PM 29.3699 -92.3598 281° West 396 456 36,000  Level FlightAware ADS-B
Fri 08:25:17 PM 29.3802 -92.4232 281° West 396 456 36,000  Level FlightAware ADS-B
Fri 08:25:47 PM 29.3863 -92.4857 276° West 396 456 36,000  Level FlightAware ADS-B
Fri 08:26:19 PM 29.3919 -92.5532 275° West 396 456 36,000  Level FlightAware ADS-B
Fri 08:26:57 PM 29.3986 -92.6317 276° West 396 456 36,000  Level FlightAware ADS-B
Fri 08:27:29 PM 29.4043 -92.6983 276° West 397 457 36,000  Level FlightAware ADS-B
Fri 08:27:59 PM 29.4097 -92.7621 276° West 398 458 36,000  Level FlightAware ADS-B
Fri 08:28:29 PM 29.4149 -92.8257 275° West 398 458 36,000  Level FlightAware ADS-B
Fri 08:29:00 PM 29.4202 -92.8888 276° West 398 458 36,000  Level FlightAware ADS-B
Fri 08:29:30 PM 29.4256 -92.9535 275° West 398 458 36,000  Level FlightAware ADS-B
Fri 08:30:01 PM 29.4309 -93.0171 275° West 397 457 36,000  Level FlightAware ADS-B
Fri 08:30:31 PM 29.4361 -93.0810 275° West 398 458 36,000 -787 Level FlightAware ADS-B
Fri 08:31:02 PM 29.4413 -93.1448 275° West 398 458 35,200 -2,361 Descending FlightAware ADS-B
Fri 08:31:32 PM 29.4464 -93.2085 275° West 405 466 33,600 -3,200 Descending FlightAware ADS-B
Fri 08:32:02 PM 29.4517 -93.2731 275° West 411 473 32,000 -2,800 Descending FlightAware ADS-B
Fri 08:32:32 PM 29.4570 -93.3384 275° West 406 467 30,800 -2,381 Descending FlightAware ADS-B
Fri 08:33:05 PM 29.4624 -93.4071 275° West 401 461 29,500 -2,438 Descending FlightAware ADS-B
Fri 08:33:36 PM 29.4677 -93.4733 275° West 399 459 28,200 -2,426 Descending FlightAware ADS-B
Fri 08:33:52 PM 29.4704 -93.5066 275° West 396 456 27,600 -2,200 Descending FlightAware ADS-B
Fri 08:34:06 PM 29.4727 -93.5361 275° West 393 452 27,100 -2,063 Descending FlightAware ADS-B
Fri 08:34:24 PM 29.4756 -93.5736 275° West 390 449 26,500 -2,129 Descending FlightAware ADS-B
Fri 08:34:37 PM 29.4776 -93.5988 275° West 387 445 26,000 -2,129 Descending FlightAware ADS-B
Fri 08:34:55 PM 29.4804 -93.6354 275° West 384 442 25,400 -2,129 Descending FlightAware ADS-B
Fri 08:35:08 PM 29.4824 -93.6622 275° West 381 438 24,900 -2,182 Descending FlightAware ADS-B
Fri 08:35:39 PM 29.4871 -93.7235 275° West 376 433 23,800 -2,049 Descending FlightAware ADS-B
Fri 08:35:49 PM 29.4885 -93.7431 275° West 377 434 23,500 -2,063 Descending FlightAware ADS-B
Fri 08:36:11 PM 29.4917 -93.7862 275° West 370 426 22,700 -2,200 Descending FlightAware ADS-B
Fri 08:36:19 PM 29.4930 -93.8030 275° West 369 425 22,400 -2,000 Descending FlightAware ADS-B
Fri 08:36:41 PM 29.4962 -93.8446 275° West 366 421 21,700 -1,962 Descending FlightAware ADS-B
Fri 08:37:11 PM 29.5009 -93.9022 275° West 363 418 20,700 -2,000 Descending FlightAware ADS-B
Fri 08:37:41 PM 29.5051 -93.9595 275° West 357 411 19,700 -1,935 Descending FlightAware ADS-B
Fri 08:37:42 PM 29.5053 -93.9616 276° West 363 418 19,700 -1,875 Level FlightAware ADS-B
Fri 08:38:13 PM 29.5096 -94.0202 275° West 351 404 18,700 -1,875 Descending FlightAware ADS-B
Fri 08:38:14 PM 29.5097 -94.0222 273° West 352 405 18,700 -1,742 Level FlightAware ADS-B
Fri 08:38:44 PM 29.5139 -94.0769 275° West 347 399 17,800 -1,935 Descending FlightAware ADS-B
Fri 08:38:45 PM 29.5140 -94.0786 274° West 347 399 17,700 -2,200 Descending FlightAware ADS-B
Fri 08:39:14 PM 29.5179 -94.1325 275° West 347 399 16,700 -2,100 Descending FlightAware ADS-B
Fri 08:39:45 PM 29.5220 -94.1880 275° West 346 398 15,600 -2,066 Descending FlightAware ADS-B
Fri 08:40:15 PM 29.5261 -94.2438 275° West 345 397 14,600 -2,066 Descending FlightAware ADS-B
Fri 08:40:46 PM 29.5301 -94.2996 275° West 343 395 13,500 -2,182 Descending FlightAware ADS-B
Fri 08:40:59 PM 29.5322 -94.3239 276° West 342 394 13,000 -1,636 Descending FlightAware ADS-B
Fri 08:41:08 PM 29.5347 -94.3384 281° West 340 391 12,900 -667 Descending FlightAware ADS-B
Fri 08:41:17 PM 29.5388 -94.3540 287° West 336 387 12,800 -375 Descending FlightAware ADS-B
Fri 08:41:24 PM 29.5428 -94.3656 292° West 335 386 12,800  Level FlightAware ADS-B
Fri 08:41:54 PM 29.5631 -94.4136 296° West 333 383 12,800  Level FlightAware ADS-B
Fri 08:42:24 PM 29.5834 -94.4617 296° West 332 382 12,800  Level FlightAware ADS-B
Fri 08:42:54 PM 29.6039 -94.5098 296° West 335 386 12,800  Level FlightAware ADS-B
Fri 08:43:09 PM 29.6141 -94.5337 296° West 335 386 12,800  Level FlightAware ADS-B
Fri 08:43:25 PM 29.6253 -94.5598 296° West 335 386 12,800  Level FlightAware ADS-B
Fri 08:43:45 PM 29.6385 -94.5908 296° West 335 386 12,800 -194 Level FlightAware ADS-B
Fri 08:43:56 PM 29.6460 -94.6082 296° West 335 386 12,700 -1,059 Descending FlightAware ADS-B
Fri 08:44:19 PM 29.6620 -94.6457 296° West 336 387 12,200 -1,400 Descending FlightAware ADS-B
Fri 08:44:26 PM 29.6669 -94.6570 297° West 335 386 12,000 -1,459 Descending FlightAware ADS-B
Fri 08:44:56 PM 29.6873 -94.7051 296° West 330 380 11,300 -1,459 Descending FlightAware ADS-B
Fri 08:45:03 PM 29.6915 -94.7150 296° West 333 383 11,100 -1,355 Descending FlightAware ADS-B
Fri 08:45:27 PM 29.7074 -94.7525 296° West 322 371 10,600 -1,000 Descending FlightAware ADS-B
Fri 08:45:39 PM 29.7154 -94.7713 296° West 318 366 10,500 -800 Descending FlightAware ADS-B
Fri 08:45:57 PM 29.7268 -94.7985 296° West 314 361 10,200 -968 Descending FlightAware ADS-B
Fri 08:46:10 PM 29.7345 -94.8168 296° West 315 362 10,000 -1,059 Descending FlightAware ADS-B
Fri 08:46:14 PM 29.7372 -94.8233 296° West 315 362 9,900 -632 Descending FlightAware ADS-B
Fri 08:46:29 PM 29.7471 -94.8466 296° West 317 365 9,800 -375 Descending FlightAware ADS-B
Fri 08:46:30 PM 29.7478 -94.8483 295° West 318 366 9,800  Level FlightAware ADS-B
Fri 08:46:44 PM 29.7568 -94.8696 296° West 317 365 9,800  Level FlightAware ADS-B
Fri 08:46:50 PM 29.7602 -94.8775 296° West 317 365 9,800  Level FlightAware ADS-B
Fri 08:47:00 PM 29.7665 -94.8927 296° West 316 364 9,800  Level FlightAware ADS-B
Fri 08:47:05 PM 29.7699 -94.9008 296° West 316 364 9,800  Level FlightAware ADS-B
Fri 08:47:15 PM 29.7763 -94.9160 296° West 317 365 9,800  Level FlightAware ADS-B
Fri 08:47:22 PM 29.7805 -94.9261 296° West 313 360 9,800  Level FlightAware ADS-B
Fri 08:47:30 PM 29.7856 -94.9382 296° West 304 350 9,800 -286 Level FlightAware ADS-B
Fri 08:47:43 PM 29.7936 -94.9569 296° West 298 343 9,700 -400 Descending FlightAware ADS-B
Fri 08:47:45 PM 29.7948 -94.9597 296° West 290 334 9,700 -1,200 Level FlightAware ADS-B
Fri 08:47:58 PM 29.8021 -94.9769 296° West 288 331 9,400 -1,600 Descending FlightAware ADS-B
Fri 08:48:00 PM 29.8036 -94.9805 296° West 288 331 9,300 -2,118 Descending FlightAware ADS-B
Fri 08:48:15 PM 29.8123 -95.0015 296° West 290 334 8,800 -1,875 Descending FlightAware ADS-B
Fri 08:48:16 PM 29.8126 -95.0022 296° West 290 334 8,800 -1,125 Level FlightAware ADS-B
Fri 08:48:31 PM 29.8213 -95.0226 296° West 289 333 8,500 -1,333 Descending FlightAware ADS-B
Fri 08:48:34 PM 29.8231 -95.0268 296° West 290 334 8,400 -1,600 Descending FlightAware ADS-B
Fri 08:48:46 PM 29.8303 -95.0439 296° West 287 330 8,100 -1,412 Descending FlightAware ADS-B
Fri 08:48:51 PM 29.8328 -95.0499 296° West 287 330 8,000 -1,600 Descending FlightAware ADS-B
Fri 08:49:01 PM 29.8391 -95.0646 296° West 287 330 7,700 -1,600 Descending FlightAware ADS-B
Fri 08:49:06 PM 29.8417 -95.0709 295° West 287 330 7,600 -1,600 Descending FlightAware ADS-B
Fri 08:49:16 PM 29.8478 -95.0854 296° West 288 331 7,300 -1,667 Descending FlightAware ADS-B
Fri 08:49:24 PM 29.8525 -95.0964 296° West 288 331 7,100 -1,875 Descending FlightAware ADS-B
Fri 08:49:32 PM 29.8566 -95.1063 296° West 291 335 6,800 -1,875 Descending FlightAware ADS-B
Fri 08:49:40 PM 29.8617 -95.1183 296° West 292 336 6,600 -1,600 Descending FlightAware ADS-B
Fri 08:49:47 PM 29.8656 -95.1277 296° West 293 337 6,400 -1,875 Descending FlightAware ADS-B
Fri 08:49:56 PM 29.8712 -95.1410 296° West 293 337 6,100 -1,600 Descending FlightAware ADS-B
Fri 08:50:02 PM 29.8746 -95.1491 296° West 293 337 6,000 -1,000 Descending FlightAware ADS-B
Fri 08:50:14 PM 29.8814 -95.1653 296° West 291 335 5,800 -800 Descending FlightAware ADS-B
Fri 08:50:17 PM 29.8835 -95.1703 296° West 289 333 5,800  Level FlightAware ADS-B
Fri 08:50:27 PM 29.8892 -95.1843 295° West 287 330 5,800  Level FlightAware ADS-B
Fri 08:50:31 PM 29.8911 -95.1894 293° West 288 331 5,800  Level FlightAware ADS-B
Fri 08:50:33 PM 29.8922 -95.1928 290° West 284 327 5,800  Level FlightAware ADS-B
Fri 08:50:38 PM 29.8940 -95.1989 289° West 283 326 5,800  Level FlightAware ADS-B
Fri 08:50:42 PM 29.8954 -95.2045 286° West 282 325 5,800  Level FlightAware ADS-B
Fri 08:50:47 PM 29.8969 -95.2119 283° West 279 321 5,800  Level FlightAware ADS-B
Fri 08:50:49 PM 29.8975 -95.2151 282° West 278 320 5,800  Level FlightAware ADS-B
Fri 08:50:51 PM 29.8978 -95.2177 278° West 277 319 5,800  Level FlightAware ADS-B
Fri 08:50:55 PM 29.8986 -95.2245 278° West 276 318 5,800  Level FlightAware ADS-B
Fri 08:50:57 PM 29.8988 -95.2274 275° West 275 316 5,800  Level FlightAware ADS-B
Fri 08:51:01 PM 29.8991 -95.2324 274° West 274 315 5,800  Level FlightAware ADS-B
Fri 08:51:07 PM 29.8992 -95.2420 271° West 272 313 5,800  Level FlightAware ADS-B
Fri 08:51:23 PM 29.8993 -95.2641 270° West 272 313 5,800  Level FlightAware ADS-B
Fri 08:51:24 PM 29.8993 -95.2663 270° West 272 313 5,800  Level FlightAware ADS-B
Fri 08:51:38 PM 29.8995 -95.2859 271° West 272 313 5,800  Level FlightAware ADS-B
Fri 08:51:39 PM 29.8995 -95.2880 270° West 272 313 5,800  Level FlightAware ADS-B
Fri 08:51:53 PM 29.8996 -95.3082 270° West 271 312 5,800  Level FlightAware ADS-B
Fri 08:51:56 PM 29.8997 -95.3122 272° West 271 312 5,800  Level FlightAware ADS-B
Fri 08:52:20 PM 29.8999 -95.3465 270° West 268 308 5,800  Level FlightAware ADS-B
Fri 08:52:35 PM 29.9000 -95.3669 270° West 270 311 5,800  Level FlightAware ADS-B
Fri 08:52:40 PM 29.9001 -95.3739 271° West 253 291 5,800  Level FlightAware ADS-B
Fri 08:52:46 PM 29.9001 -95.3813 270° West 243 280 5,800  Level FlightAware ADS-B
Fri 08:53:03 PM 29.9001 -95.4027 270° West 231 266 5,800  Level FlightAware ADS-B
Fri 08:53:17 PM 29.9001 -95.4205 270° West 226 260 5,800  Level FlightAware ADS-B
Fri 08:53:18 PM 29.9001 -95.4211 270° West 225 259 5,800  Level FlightAware ADS-B
Fri 08:53:33 PM 29.9002 -95.4394 270° West 225 259 5,800 231 Level FlightAware ADS-B
Fri 08:53:44 PM 29.9002 -95.4532 270° West 225 259 5,900 375 Climbing FlightAware ADS-B
Fri 08:53:49 PM 29.9002 -95.4590 270° West 246 283 5,900 -333 Level FlightAware ADS-B
Fri 08:54:02 PM 29.9003 -95.4773 270° West 256 295 5,800 -375 Descending FlightAware ADS-B
Fri 08:54:05 PM 29.9003 -95.4822 270° West 262 302 5,800  Level FlightAware ADS-B
Fri 08:54:21 PM 29.9005 -95.5040 271° West 267 307 5,800  Level FlightAware ADS-B
Fri 08:54:25 PM 29.9006 -95.5104 271° West 268 308 5,800  Level FlightAware ADS-B
Fri 08:54:36 PM 29.9008 -95.5259 271° West 269 310 5,800  Level FlightAware ADS-B
Fri 08:54:43 PM 29.9009 -95.5353 271° West 269 310 5,800  Level FlightAware ADS-B
Fri 08:54:53 PM 29.9010 -95.5494 270° West 268 308 5,800 -273 Level FlightAware ADS-B
Fri 08:55:05 PM 29.9011 -95.5661 270° West 265 305 5,700 -800 Descending FlightAware ADS-B
Fri 08:55:08 PM 29.9011 -95.5717 270° West 263 303 5,600 -2,400 Descending FlightAware ADS-B
Fri 08:55:25 PM 29.9012 -95.5955 270° West 270 311 4,900 -2,294 Descending FlightAware ADS-B
Fri 08:55:42 PM 29.9014 -95.6207 271° West 274 315 4,300 -2,087 Descending FlightAware ADS-B
Fri 08:55:48 PM 29.9015 -95.6289 271° West 273 314 4,100 -1,500 Descending FlightAware ADS-B
Fri 08:55:54 PM 29.9025 -95.6373 278° West 273 314 4,000 -1,333 Descending FlightAware ADS-B
Fri 08:55:57 PM 29.9037 -95.6423 285° West 273 314 3,900 -857 Descending FlightAware ADS-B
Fri 08:56:01 PM 29.9054 -95.6470 293° West 272 313 3,900 -750 Level FlightAware ADS-B
Fri 08:56:05 PM 29.9081 -95.6523 300° West 270 311 3,800 -857 Descending FlightAware ADS-B
Fri 08:56:08 PM 29.9105 -95.6558 308° West 269 310 3,800  Level FlightAware ADS-B
Fri 08:56:16 PM 29.9173 -95.6628 318° Northwest 263 303 3,800  Level FlightAware ADS-B
Fri 08:56:19 PM 29.9209 -95.6653 329° Northwest 259 298 3,800  Level FlightAware ADS-B
Fri 08:56:24 PM 29.9259 -95.6677 337° Northwest 255 293 3,800  Level FlightAware ADS-B
Fri 08:56:28 PM 29.9305 -95.6692 344° North 251 289 3,800  Level FlightAware ADS-B
Fri 08:56:35 PM 29.9380 -95.6699 355° North 247 284 3,800  Level FlightAware ADS-B
Fri 08:56:44 PM 29.9485 -95.6693 North 245 282 3,800  Level FlightAware ADS-B
Fri 08:56:54 PM 29.9599 -95.6681 North 243 280 3,800  Level FlightAware ADS-B
Fri 08:56:58 PM 29.9641 -95.6670 13° North 241 277 3,800  Level FlightAware ADS-B
Fri 08:57:01 PM 29.9674 -95.6656 20° North 240 276 3,800  Level FlightAware ADS-B
Fri 08:57:05 PM 29.9712 -95.6635 26° Northeast 240 276 3,800  Level FlightAware ADS-B
Fri 08:57:09 PM 29.9748 -95.6607 34° Northeast 238 274 3,800  Level FlightAware ADS-B
Fri 08:57:13 PM 29.9780 -95.6575 41° Northeast 237 273 3,800  Level FlightAware ADS-B
Fri 08:57:16 PM 29.9804 -95.6544 48° Northeast 235 270 3,800  Level FlightAware ADS-B
Fri 08:57:21 PM 29.9835 -95.6491 56° Northeast 234 269 3,800  Level FlightAware ADS-B
Fri 08:57:25 PM 29.9858 -95.6446 59° Northeast 233 268 3,800  Level FlightAware ADS-B
Fri 08:57:29 PM 29.9879 -95.6400 62° Northeast 233 268 3,800  Level FlightAware ADS-B
Fri 08:57:33 PM 29.9893 -95.6362 67° East 232 267 3,800  Level FlightAware ADS-B
Fri 08:57:37 PM 29.9907 -95.6312 72° East 231 266 3,800  Level FlightAware ADS-B
Fri 08:57:41 PM 29.9917 -95.6257 78° East 229 264 3,800  Level FlightAware ADS-B
Fri 08:57:48 PM 29.9925 -95.6180 83° East 224 258 3,800  Level FlightAware ADS-B
Fri 08:57:54 PM 29.9928 -95.6105 87° East 217 250 3,800  Level FlightAware ADS-B
Fri 08:58:06 PM 29.9930 -95.5979 89° East 210 242 3,800 -273 Level FlightAware ADS-B
Fri 08:58:16 PM 29.9930 -95.5857 90° East 210 242 3,700 -889 Descending FlightAware ADS-B
Fri 08:58:33 PM 29.9930 -95.5675 90° East 209 241 3,400 -1,125 Descending FlightAware ADS-B
Fri 08:58:48 PM 29.9930 -95.5505 90° East 211 243 3,100 -938 Descending FlightAware ADS-B
Fri 08:59:05 PM 29.9931 -95.5312 90° East 204 235 2,900 -973 Descending FlightAware ADS-B
Fri 08:59:25 PM 29.9932 -95.5110 90° East 195 224 2,500 -1,167 Descending FlightAware ADS-B
Fri 08:59:41 PM 29.9932 -95.4950 90° East 188 216 2,200 -938 Descending FlightAware ADS-B
Fri 08:59:57 PM 29.9932 -95.4791 90° East 185 213 2,000 -968 Descending FlightAware ADS-B
Fri 09:00:12 PM 29.9932 -95.4639 90° East 182 209 1,700 -1,000 Descending FlightAware ADS-B
Fri 09:00:27 PM 29.9933 -95.4502 90° East 173 199 1,500 -857 Descending FlightAware ADS-B
Fri 09:00:47 PM 29.9933 -95.4327 90° East 158 182 1,200 -857 Descending FlightAware ADS-B
Fri 09:01:02 PM 29.9933 -95.4207 90° East 145 167 1,000 -643 Descending FlightAware ADS-B
Fri 09:01:15 PM 29.9933 -95.4115 90° East 143 165 900 -643 Descending FlightAware ADS-B
Fri 09:01:30 PM 29.9934 -95.3998 89° East 140 161 700 -889 Descending FlightAware ADS-B
Fri 09:01:42 PM 29.9934 -95.3912 90° East 137 158 500 -720 Descending FlightAware ADS-B
Fri 09:01:55 PM 29.9934 -95.3818 90° East 137 158 400 -632 Descending FlightAware ADS-B
Fri 09:02:01 PM 29.9934 -95.3769 90° East 138 159 300 -818 Descending FlightAware ADS-B
Fri 09:02:17 PM 29.9935 -95.3656 89° East 137 158 100 -750 Descending FlightAware ADS-B
Fri 09:02:25 PM 29.9934 -95.3598 91° East 137 158 -750 Descending FlightAware ADS-B

Login

Don't have an account? Register now (free) for customized features, flight alerts, and more!